KIAH/IAH METAR and TAF weather

Enter ICAO airport designator
Station Type Date Time Source
KIAH METAR 2019/08/21 22:53 UTC NOAA

KIAH 212253Z 21006KT 10SM FEW050 FEW180 BKN250 33/22 A2995 RMK AO2 SLP139 T03330217


Station Type Date Time Source
KIAH Decoded METAR 2019/08/21 22:53 UTC NOAA

Station name not available
Aug 21, 2019 - 06:53 PM EDT / 2019.08.21 2253 UTC
Wind: from the SSW (210 degrees) at 7 MPH (6 KT):0
Visibility: 10 mile(s):0
Sky conditions: mostly cloudy
Temperature: 91.9 F (33.3 C)
Heat index: 98.4 F (36.9 C):1
Dew Point: 71.1 F (21.7 C)
Relative Humidity: 50%
Pressure (altimeter): 29.95 in. Hg (1014 hPa)
ob: KIAH 212253Z 21006KT 10SM FEW050 FEW180 BKN250 33/22 A2995 RMK AO2 SLP139 T03330217
cycle: 23

Station Type Date Time Source
KIAH TAF 2019/08/21 21:54 UTC NOAA

TAF
AMD KIAH 212053Z 2121/2224 16007KT P6SM VCSH SCT060 SCT110 BKN250
FM220000 14005KT P6SM SCT250
FM220800 VRB04KT P6SM BKN250
FM221800 16005KT P6SM VCSH SCT050 SCT250

Example: see airport list